sensor_id;sensor_type;location;lat;lon;timestamp;temperature;humidity
42201;DHT22;27869;51.442;7.540;2023-04-01T00:01:55;10.00;99.90
42201;DHT22;27869;51.442;7.540;2023-04-01T00:04:22;10.00;99.90
42201;DHT22;27869;51.442;7.540;2023-04-01T00:06:49;9.90;99.90
42201;DHT22;27869;51.442;7.540;2023-04-01T00:09:17;9.90;99.90
42201;DHT22;27869;51.442;7.540;2023-04-01T00:11:44;9.90;99.90
42201;DHT22;27869;51.442;7.540;2023-04-01T00:14:11;9.90;99.90
42201;DHT22;27869;51.442;7.540;2023-04-01T00:16:38;9.90;99.90
42201;DHT22;27869;51.442;7.540;2023-04-01T00:19:06;9.90;99.90
42201;DHT22;27869;51.442;7.540;2023-04-01T00:21:33;9.90;99.90
42201;DHT22;27869;51.442;7.540;2023-04-01T00:24:00;9.80;99.90
42201;DHT22;27869;51.442;7.540;2023-04-01T00:26:27;9.90;99.90
42201;DHT22;27869;51.442;7.540;2023-04-01T00:28:54;9.80;99.90
42201;DHT22;27869;51.442;7.540;2023-04-01T00:31:21;9.80;99.90
42201;DHT22;27869;51.442;7.540;2023-04-01T00:33:48;9.80;99.90
42201;DHT22;27869;51.442;7.540;2023-04-01T00:36:19;9.80;99.90
42201;DHT22;27869;51.442;7.540;2023-04-01T00:38:47;9.80;99.90
42201;DHT22;27869;51.442;7.540;2023-04-01T00:41:15;9.80;99.90
42201;DHT22;27869;51.442;7.540;2023-04-01T00:43:43;9.80;99.90
42201;DHT22;27869;51.442;7.540;2023-04-01T00:46:11;9.80;99.90
42201;DHT22;27869;51.442;7.540;2023-04-01T00:48:39;9.80;99.90
42201;DHT22;27869;51.442;7.540;2023-04-01T00:51:10;9.70;99.90
42201;DHT22;27869;51.442;7.540;2023-04-01T00:53:43;9.70;99.90
42201;DHT22;27869;51.442;7.540;2023-04-01T00:56:12;9.70;99.90
42201;DHT22;27869;51.442;7.540;2023-04-01T00:58:41;9.70;99.90
42201;DHT22;27869;51.442;7.540;2023-04-01T01:01:10;9.70;99.90
42201;DHT22;27869;51.442;7.540;2023-04-01T01:03:37;9.70;99.90
42201;DHT22;27869;51.442;7.540;2023-04-01T01:06:16;9.70;99.90
42201;DHT22;27869;51.442;7.540;2023-04-01T01:09:10;9.70;99.90
42201;DHT22;27869;51.442;7.540;2023-04-01T01:11:43;9.70;99.90
42201;DHT22;27869;51.442;7.540;2023-04-01T01:14:29;9.60;99.90
42201;DHT22;27869;51.442;7.540;2023-04-01T01:17:04;9.70;99.90
42201;DHT22;27869;51.442;7.540;2023-04-01T01:19:50;9.60;99.90
42201;DHT22;27869;51.442;7.540;2023-04-01T01:22:33;9.70;99.90
42201;DHT22;27869;51.442;7.540;2023-04-01T01:25:16;9.60;99.90
42201;DHT22;27869;51.442;7.540;2023-04-01T01:27:49;9.70;99.90
42201;DHT22;27869;51.442;7.540;2023-04-01T01:30:30;9.70;99.90
42201;DHT22;27869;51.442;7.540;2023-04-01T01:33:08;9.60;99.90
42201;DHT22;27869;51.442;7.540;2023-04-01T01:35:43;9.60;99.90
42201;DHT22;27869;51.442;7.540;2023-04-01T01:38:14;9.60;99.90
42201;DHT22;27869;51.442;7.540;2023-04-01T01:40:42;9.70;99.90
42201;DHT22;27869;51.442;7.540;2023-04-01T01:43:12;9.60;99.90
42201;DHT22;27869;51.442;7.540;2023-04-01T01:45:44;9.60;99.90
42201;DHT22;27869;51.442;7.540;2023-04-01T01:48:12;9.60;99.90
42201;DHT22;27869;51.442;7.540;2023-04-01T01:50:41;9.60;99.90
42201;DHT22;27869;51.442;7.540;2023-04-01T01:53:10;9.60;99.90
42201;DHT22;27869;51.442;7.540;2023-04-01T01:55:39;9.60;99.90
42201;DHT22;27869;51.442;7.540;2023-04-01T01:58:07;9.60;99.90
42201;DHT22;27869;51.442;7.540;2023-04-01T02:00:36;9.60;99.90
42201;DHT22;27869;51.442;7.540;2023-04-01T02:03:04;9.60;99.90
42201;DHT22;27869;51.442;7.540;2023-04-01T02:05:31;9.60;99.90
42201;DHT22;27869;51.442;7.540;2023-04-01T02:08:05;9.60;99.90
42201;DHT22;27869;51.442;7.540;2023-04-01T02:10:35;9.60;99.90
42201;DHT22;27869;51.442;7.540;2023-04-01T02:13:09;9.60;99.90
42201;DHT22;27869;51.442;7.540;2023-04-01T02:15:42;9.60;99.90
42201;DHT22;27869;51.442;7.540;2023-04-01T02:18:12;9.60;99.90
42201;DHT22;27869;51.442;7.540;2023-04-01T02:20:40;9.60;99.90
42201;DHT22;27869;51.442;7.540;2023-04-01T02:23:10;9.60;99.90
42201;DHT22;27869;51.442;7.540;2023-04-01T02:25:37;9.60;99.90
42201;DHT22;27869;51.442;7.540;2023-04-01T02:28:06;9.50;99.90
42201;DHT22;27869;51.442;7.540;2023-04-01T02:30:35;9.50;99.90
42201;DHT22;27869;51.442;7.540;2023-04-01T02:33:03;9.50;99.90
42201;DHT22;27869;51.442;7.540;2023-04-01T02:35:30;9.50;99.90
42201;DHT22;27869;51.442;7.540;2023-04-01T02:38:01;9.50;99.90
42201;DHT22;27869;51.442;7.540;2023-04-01T02:40:29;9.50;99.90
42201;DHT22;27869;51.442;7.540;2023-04-01T02:42:56;9.50;99.90
42201;DHT22;27869;51.442;7.540;2023-04-01T02:45:23;9.50;99.90
42201;DHT22;27869;51.442;7.540;2023-04-01T02:47:50;9.50;99.90
42201;DHT22;27869;51.442;7.540;2023-04-01T02:50:17;9.50;99.90
42201;DHT22;27869;51.442;7.540;2023-04-01T02:52:44;9.50;99.90
42201;DHT22;27869;51.442;7.540;2023-04-01T02:55:11;9.50;99.90
42201;DHT22;27869;51.442;7.540;2023-04-01T02:57:39;9.50;99.90
42201;DHT22;27869;51.442;7.540;2023-04-01T03:00:07;9.50;99.90
42201;DHT22;27869;51.442;7.540;2023-04-01T03:02:37;9.50;99.90
42201;DHT22;27869;51.442;7.540;2023-04-01T03:05:05;9.50;99.90
42201;DHT22;27869;51.442;7.540;2023-04-01T03:07:32;9.50;99.90
42201;DHT22;27869;51.442;7.540;2023-04-01T03:09:59;9.50;99.90
42201;DHT22;27869;51.442;7.540;2023-04-01T03:12:26;9.50;99.90
42201;DHT22;27869;51.442;7.540;2023-04-01T03:14:54;9.50;99.90
42201;DHT22;27869;51.442;7.540;2023-04-01T03:17:21;9.50;99.90
42201;DHT22;27869;51.442;7.540;2023-04-01T03:19:48;9.50;99.90
42201;DHT22;27869;51.442;7.540;2023-04-01T03:22:15;9.50;99.90
42201;DHT22;27869;51.442;7.540;2023-04-01T03:24:42;9.50;99.90
42201;DHT22;27869;51.442;7.540;2023-04-01T03:27:09;9.50;99.90
42201;DHT22;27869;51.442;7.540;2023-04-01T03:29:35;9.50;99.90
42201;DHT22;27869;51.442;7.540;2023-04-01T03:32:04;9.50;99.90
42201;DHT22;27869;51.442;7.540;2023-04-01T03:34:31;9.40;99.90
42201;DHT22;27869;51.442;7.540;2023-04-01T03:36:58;9.50;99.90
42201;DHT22;27869;51.442;7.540;2023-04-01T03:39:25;9.40;99.90
42201;DHT22;27869;51.442;7.540;2023-04-01T03:41:52;9.40;99.90
42201;DHT22;27869;51.442;7.540;2023-04-01T03:44:19;9.50;99.90
42201;DHT22;27869;51.442;7.540;2023-04-01T03:46:45;9.40;99.90
42201;DHT22;27869;51.442;7.540;2023-04-01T03:49:14;9.40;99.90
42201;DHT22;27869;51.442;7.540;2023-04-01T03:51:42;9.40;99.90
42201;DHT22;27869;51.442;7.540;2023-04-01T03:54:10;9.40;99.90
42201;DHT22;27869;51.442;7.540;2023-04-01T03:56:37;9.40;99.90
42201;DHT22;27869;51.442;7.540;2023-04-01T03:59:06;9.40;99.90
42201;DHT22;27869;51.442;7.540;2023-04-01T04:01:33;9.40;99.90
42201;DHT22;27869;51.442;7.540;2023-04-01T04:04:00;9.30;99.90
42201;DHT22;27869;51.442;7.540;2023-04-01T04:06:29;9.40;99.90
42201;DHT22;27869;51.442;7.540;2023-04-01T04:08:56;9.30;99.90
42201;DHT22;27869;51.442;7.540;2023-04-01T04:11:23;9.30;99.90
42201;DHT22;27869;51.442;7.540;2023-04-01T04:13:50;9.30;99.90
42201;DHT22;27869;51.442;7.540;2023-04-01T04:16:18;9.30;99.90
42201;DHT22;27869;51.442;7.540;2023-04-01T04:18:45;9.30;99.90
42201;DHT22;27869;51.442;7.540;2023-04-01T04:21:13;9.30;99.90
42201;DHT22;27869;51.442;7.540;2023-04-01T04:23:42;9.30;99.90
42201;DHT22;27869;51.442;7.540;2023-04-01T04:26:11;9.30;99.90
42201;DHT22;27869;51.442;7.540;2023-04-01T04:28:38;9.30;99.90
42201;DHT22;27869;51.442;7.540;2023-04-01T04:31:05;9.30;99.90
42201;DHT22;27869;51.442;7.540;2023-04-01T04:33:33;9.30;99.90
42201;DHT22;27869;51.442;7.540;2023-04-01T04:36:02;9.30;99.90
42201;DHT22;27869;51.442;7.540;2023-04-01T04:38:29;9.30;99.90
42201;DHT22;27869;51.442;7.540;2023-04-01T04:40:58;9.30;99.90
42201;DHT22;27869;51.442;7.540;2023-04-01T04:43:25;9.30;99.90
42201;DHT22;27869;51.442;7.540;2023-04-01T04:45:51;9.30;99.90
42201;DHT22;27869;51.442;7.540;2023-04-01T04:48:18;9.30;99.90
42201;DHT22;27869;51.442;7.540;2023-04-01T04:50:46;9.30;99.90
42201;DHT22;27869;51.442;7.540;2023-04-01T04:53:15;9.30;99.90
42201;DHT22;27869;51.442;7.540;2023-04-01T04:55:45;9.30;99.90
42201;DHT22;27869;51.442;7.540;2023-04-01T04:58:13;9.30;99.90
42201;DHT22;27869;51.442;7.540;2023-04-01T05:00:41;9.30;99.90
42201;DHT22;27869;51.442;7.540;2023-04-01T05:03:08;9.30;99.90
42201;DHT22;27869;51.442;7.540;2023-04-01T05:05:35;9.30;99.90
42201;DHT22;27869;51.442;7.540;2023-04-01T05:08:03;9.30;99.90
42201;DHT22;27869;51.442;7.540;2023-04-01T05:10:30;9.30;99.90
42201;DHT22;27869;51.442;7.540;2023-04-01T05:12:57;9.30;99.90
42201;DHT22;27869;51.442;7.540;2023-04-01T05:15:26;9.30;99.90
42201;DHT22;27869;51.442;7.540;2023-04-01T05:17:53;9.30;99.90
42201;DHT22;27869;51.442;7.540;2023-04-01T05:20:19;9.40;99.90
42201;DHT22;27869;51.442;7.540;2023-04-01T05:22:46;9.40;99.90
42201;DHT22;27869;51.442;7.540;2023-04-01T05:25:13;9.40;99.90
42201;DHT22;27869;51.442;7.540;2023-04-01T05:27:40;9.40;99.90
42201;DHT22;27869;51.442;7.540;2023-04-01T05:30:08;9.30;99.90
42201;DHT22;27869;51.442;7.540;2023-04-01T05:32:36;9.30;99.90
42201;DHT22;27869;51.442;7.540;2023-04-01T05:35:04;9.40;99.90
42201;DHT22;27869;51.442;7.540;2023-04-01T05:37:30;9.30;99.90
42201;DHT22;27869;51.442;7.540;2023-04-01T05:39:59;9.30;99.90
42201;DHT22;27869;51.442;7.540;2023-04-01T05:42:26;9.30;99.90
42201;DHT22;27869;51.442;7.540;2023-04-01T05:44:53;9.40;99.90
42201;DHT22;27869;51.442;7.540;2023-04-01T05:47:21;9.30;99.90
42201;DHT22;27869;51.442;7.540;2023-04-01T05:49:49;9.40;99.90
42201;DHT22;27869;51.442;7.540;2023-04-01T05:52:16;9.40;99.90
42201;DHT22;27869;51.442;7.540;2023-04-01T05:54:43;9.40;99.90
42201;DHT22;27869;51.442;7.540;2023-04-01T05:57:09;9.40;99.90
42201;DHT22;27869;51.442;7.540;2023-04-01T05:59:36;9.40;99.90
42201;DHT22;27869;51.442;7.540;2023-04-01T06:02:03;9.40;99.90
42201;DHT22;27869;51.442;7.540;2023-04-01T06:04:34;9.40;99.90
42201;DHT22;27869;51.442;7.540;2023-04-01T06:07:11;9.40;99.90
42201;DHT22;27869;51.442;7.540;2023-04-01T06:09:38;9.40;99.90
42201;DHT22;27869;51.442;7.540;2023-04-01T06:12:20;9.40;99.90
42201;DHT22;27869;51.442;7.540;2023-04-01T06:15:01;9.40;99.90
42201;DHT22;27869;51.442;7.540;2023-04-01T06:17:39;9.40;99.90
42201;DHT22;27869;51.442;7.540;2023-04-01T06:20:13;9.40;99.90
42201;DHT22;27869;51.442;7.540;2023-04-01T06:22:53;9.50;99.90
42201;DHT22;27869;51.442;7.540;2023-04-01T06:25:29;9.50;99.90
42201;DHT22;27869;51.442;7.540;2023-04-01T06:28:16;9.50;99.90
42201;DHT22;27869;51.442;7.540;2023-04-01T06:30:54;9.50;99.90
42201;DHT22;27869;51.442;7.540;2023-04-01T06:33:34;9.50;99.90
42201;DHT22;27869;51.442;7.540;2023-04-01T06:36:25;9.50;99.90
42201;DHT22;27869;51.442;7.540;2023-04-01T06:39:10;9.50;99.90
42201;DHT22;27869;51.442;7.540;2023-04-01T06:42:19;9.50;99.90
42201;DHT22;27869;51.442;7.540;2023-04-01T06:44:56;9.50;99.90
42201;DHT22;27869;51.442;7.540;2023-04-01T06:47:36;9.50;99.90
42201;DHT22;27869;51.442;7.540;2023-04-01T06:50:15;9.50;99.90
42201;DHT22;27869;51.442;7.540;2023-04-01T06:52:50;9.60;99.90
42201;DHT22;27869;51.442;7.540;2023-04-01T06:55:29;9.60;99.90
42201;DHT22;27869;51.442;7.540;2023-04-01T06:58:03;9.60;99.90
42201;DHT22;27869;51.442;7.540;2023-04-01T07:00:33;9.60;99.90
42201;DHT22;27869;51.442;7.540;2023-04-01T07:03:12;9.60;99.90
42201;DHT22;27869;51.442;7.540;2023-04-01T07:05:40;9.60;99.90
42201;DHT22;27869;51.442;7.540;2023-04-01T07:08:11;9.60;99.90
42201;DHT22;27869;51.442;7.540;2023-04-01T07:10:45;9.60;99.90
42201;DHT22;27869;51.442;7.540;2023-04-01T07:13:19;9.70;99.90
42201;DHT22;27869;51.442;7.540;2023-04-01T07:18:41;9.70;99.90
42201;DHT22;27869;51.442;7.540;2023-04-01T07:21:14;9.70;99.90
42201;DHT22;27869;51.442;7.540;2023-04-01T07:23:44;9.70;99.90
42201;DHT22;27869;51.442;7.540;2023-04-01T07:26:19;9.80;99.90
42201;DHT22;27869;51.442;7.540;2023-04-01T07:28:48;9.70;99.90
42201;DHT22;27869;51.442;7.540;2023-04-01T07:31:20;9.70;99.90
42201;DHT22;27869;51.442;7.540;2023-04-01T07:33:59;9.80;99.90
42201;DHT22;27869;51.442;7.540;2023-04-01T07:36:33;9.80;99.90
42201;DHT22;27869;51.442;7.540;2023-04-01T07:39:12;9.80;99.90
42201;DHT22;27869;51.442;7.540;2023-04-01T07:41:51;9.80;99.90
42201;DHT22;27869;51.442;7.540;2023-04-01T07:44:28;9.80;99.90
42201;DHT22;27869;51.442;7.540;2023-04-01T07:47:10;9.80;99.90
42201;DHT22;27869;51.442;7.540;2023-04-01T07:49:49;9.80;99.90
42201;DHT22;27869;51.442;7.540;2023-04-01T07:52:22;9.80;99.90
42201;DHT22;27869;51.442;7.540;2023-04-01T07:54:56;9.80;99.90
42201;DHT22;27869;51.442;7.540;2023-04-01T07:57:32;9.80;99.90
42201;DHT22;27869;51.442;7.540;2023-04-01T08:00:09;9.80;99.90
42201;DHT22;27869;51.442;7.540;2023-04-01T08:02:49;9.80;99.90
42201;DHT22;27869;51.442;7.540;2023-04-01T08:05:22;9.80;99.90
42201;DHT22;27869;51.442;7.540;2023-04-01T08:07:58;9.80;99.90
42201;DHT22;27869;51.442;7.540;2023-04-01T08:10:32;9.80;99.90
42201;DHT22;27869;51.442;7.540;2023-04-01T08:13:10;9.80;99.90
42201;DHT22;27869;51.442;7.540;2023-04-01T08:15:45;9.80;99.90
42201;DHT22;27869;51.442;7.540;2023-04-01T08:18:22;9.90;99.90
42201;DHT22;27869;51.442;7.540;2023-04-01T08:20:57;9.90;99.90
42201;DHT22;27869;51.442;7.540;2023-04-01T08:23:27;9.90;99.90
42201;DHT22;27869;51.442;7.540;2023-04-01T08:25:58;9.90;99.90
42201;DHT22;27869;51.442;7.540;2023-04-01T08:28:33;9.90;99.90
42201;DHT22;27869;51.442;7.540;2023-04-01T08:31:05;9.90;99.90
42201;DHT22;27869;51.442;7.540;2023-04-01T08:33:33;9.90;99.90
42201;DHT22;27869;51.442;7.540;2023-04-01T08:36:05;9.90;99.90
42201;DHT22;27869;51.442;7.540;2023-04-01T08:38:38;9.90;99.90
42201;DHT22;27869;51.442;7.540;2023-04-01T08:41:21;10.00;99.90
42201;DHT22;27869;51.442;7.540;2023-04-01T08:44:11;10.00;99.90
42201;DHT22;27869;51.442;7.540;2023-04-01T08:47:08;10.00;99.90
42201;DHT22;27869;51.442;7.540;2023-04-01T08:50:01;10.10;99.90
42201;DHT22;27869;51.442;7.540;2023-04-01T08:52:35;10.10;99.90
42201;DHT22;27869;51.442;7.540;2023-04-01T08:55:26;10.10;99.90
42201;DHT22;27869;51.442;7.540;2023-04-01T08:58:03;10.10;99.90
42201;DHT22;27869;51.442;7.540;2023-04-01T09:00:38;10.10;99.90
42201;DHT22;27869;51.442;7.540;2023-04-01T09:06:35;10.10;99.90
42201;DHT22;27869;51.442;7.540;2023-04-01T09:09:30;10.10;99.90
42201;DHT22;27869;51.442;7.540;2023-04-01T09:12:31;10.10;99.90
42201;DHT22;27869;51.442;7.540;2023-04-01T09:15:19;10.00;99.90
42201;DHT22;27869;51.442;7.540;2023-04-01T09:18:09;10.00;99.90
42201;DHT22;27869;51.442;7.540;2023-04-01T09:21:04;10.00;99.90
42201;DHT22;27869;51.442;7.540;2023-04-01T09:26:42;10.10;99.90
42201;DHT22;27869;51.442;7.540;2023-04-01T09:29:20;10.10;99.90
42201;DHT22;27869;51.442;7.540;2023-04-01T09:32:02;10.10;99.90
42201;DHT22;27869;51.442;7.540;2023-04-01T09:34:51;10.10;99.90
42201;DHT22;27869;51.442;7.540;2023-04-01T09:37:21;10.10;99.90
42201;DHT22;27869;51.442;7.540;2023-04-01T09:40:17;10.10;99.90
42201;DHT22;27869;51.442;7.540;2023-04-01T09:42:55;10.10;99.90
42201;DHT22;27869;51.442;7.540;2023-04-01T09:45:35;10.00;99.90
42201;DHT22;27869;51.442;7.540;2023-04-01T09:48:20;10.00;99.90
42201;DHT22;27869;51.442;7.540;2023-04-01T09:50:57;10.00;99.90
42201;DHT22;27869;51.442;7.540;2023-04-01T09:53:41;10.10;99.90
42201;DHT22;27869;51.442;7.540;2023-04-01T09:59:50;10.10;99.90
42201;DHT22;27869;51.442;7.540;2023-04-01T10:18:23;10.10;99.90
42201;DHT22;27869;51.442;7.540;2023-04-01T10:23:59;10.10;99.90
42201;DHT22;27869;51.442;7.540;2023-04-01T10:26:45;10.10;99.90
42201;DHT22;27869;51.442;7.540;2023-04-01T10:29:44;10.10;99.90
42201;DHT22;27869;51.442;7.540;2023-04-01T10:41:43;10.20;99.90
42201;DHT22;27869;51.442;7.540;2023-04-01T10:44:48;10.20;99.90
42201;DHT22;27869;51.442;7.540;2023-04-01T10:47:57;10.30;99.90
42201;DHT22;27869;51.442;7.540;2023-04-01T10:51:04;10.30;99.90
42201;DHT22;27869;51.442;7.540;2023-04-01T10:53:41;10.40;99.90
42201;DHT22;27869;51.442;7.540;2023-04-01T10:56:34;10.40;99.90
42201;DHT22;27869;51.442;7.540;2023-04-01T10:59:42;10.40;99.90
42201;DHT22;27869;51.442;7.540;2023-04-01T11:03:01;10.40;99.90
42201;DHT22;27869;51.442;7.540;2023-04-01T11:06:18;10.40;99.90
42201;DHT22;27869;51.442;7.540;2023-04-01T11:18:51;10.40;99.90
42201;DHT22;27869;51.442;7.540;2023-04-01T11:21:56;10.40;99.90
42201;DHT22;27869;51.442;7.540;2023-04-01T11:25:07;10.50;99.90
42201;DHT22;27869;51.442;7.540;2023-04-01T11:28:06;10.40;99.90
42201;DHT22;27869;51.442;7.540;2023-04-01T11:30:53;10.40;99.90
42201;DHT22;27869;51.442;7.540;2023-04-01T11:33:29;10.50;99.90
42201;DHT22;27869;51.442;7.540;2023-04-01T11:36:15;10.50;99.90
42201;DHT22;27869;51.442;7.540;2023-04-01T11:38:57;10.50;99.90
42201;DHT22;27869;51.442;7.540;2023-04-01T11:41:34;10.50;99.90
42201;DHT22;27869;51.442;7.540;2023-04-01T11:44:15;10.40;99.90
42201;DHT22;27869;51.442;7.540;2023-04-01T11:46:54;10.40;99.90
42201;DHT22;27869;51.442;7.540;2023-04-01T11:49:33;10.50;99.90
42201;DHT22;27869;51.442;7.540;2023-04-01T11:52:15;10.40;99.90
42201;DHT22;27869;51.442;7.540;2023-04-01T11:55:14;10.50;99.90
42201;DHT22;27869;51.442;7.540;2023-04-01T11:58:03;10.50;99.90
42201;DHT22;27869;51.442;7.540;2023-04-01T12:00:58;10.50;99.90
42201;DHT22;27869;51.442;7.540;2023-04-01T12:03:42;10.50;99.90
42201;DHT22;27869;51.442;7.540;2023-04-01T12:06:16;10.50;99.90
42201;DHT22;27869;51.442;7.540;2023-04-01T12:08:53;10.50;99.90
42201;DHT22;27869;51.442;7.540;2023-04-01T12:11:28;10.50;99.90
42201;DHT22;27869;51.442;7.540;2023-04-01T12:14:05;10.50;99.90
42201;DHT22;27869;51.442;7.540;2023-04-01T12:16:52;10.50;99.90
42201;DHT22;27869;51.442;7.540;2023-04-01T12:19:32;10.50;99.90
42201;DHT22;27869;51.442;7.540;2023-04-01T12:22:17;10.50;99.90
42201;DHT22;27869;51.442;7.540;2023-04-01T12:24:47;10.50;99.90
42201;DHT22;27869;51.442;7.540;2023-04-01T12:30:20;10.50;99.90
42201;DHT22;27869;51.442;7.540;2023-04-01T12:32:58;10.50;99.90
42201;DHT22;27869;51.442;7.540;2023-04-01T12:35:38;10.50;99.90
42201;DHT22;27869;51.442;7.540;2023-04-01T12:38:22;10.60;99.90
42201;DHT22;27869;51.442;7.540;2023-04-01T12:41:10;10.50;99.90
42201;DHT22;27869;51.442;7.540;2023-04-01T12:44:15;10.60;99.90
42201;DHT22;27869;51.442;7.540;2023-04-01T12:47:12;10.60;99.90
42201;DHT22;27869;51.442;7.540;2023-04-01T12:52:49;10.70;99.90
42201;DHT22;27869;51.442;7.540;2023-04-01T12:55:39;10.70;99.90
42201;DHT22;27869;51.442;7.540;2023-04-01T12:58:48;10.70;99.90
42201;DHT22;27869;51.442;7.540;2023-04-01T13:04:12;10.70;99.90
42201;DHT22;27869;51.442;7.540;2023-04-01T13:06:53;10.70;99.90
42201;DHT22;27869;51.442;7.540;2023-04-01T13:09:36;10.70;99.90
42201;DHT22;27869;51.442;7.540;2023-04-01T13:12:30;10.70;99.90
42201;DHT22;27869;51.442;7.540;2023-04-01T13:15:18;10.70;99.90
42201;DHT22;27869;51.442;7.540;2023-04-01T13:17:52;10.80;99.90
42201;DHT22;27869;51.442;7.540;2023-04-01T13:20:27;10.80;99.90
42201;DHT22;27869;51.442;7.540;2023-04-01T13:23:05;10.80;99.90
42201;DHT22;27869;51.442;7.540;2023-04-01T13:25:39;10.80;99.90
42201;DHT22;27869;51.442;7.540;2023-04-01T13:28:15;10.90;99.90
42201;DHT22;27869;51.442;7.540;2023-04-01T13:30:49;10.90;99.90
42201;DHT22;27869;51.442;7.540;2023-04-01T13:33:25;11.00;99.90
42201;DHT22;27869;51.442;7.540;2023-04-01T13:36:03;11.00;99.90
42201;DHT22;27869;51.442;7.540;2023-04-01T13:38:45;11.00;99.90
42201;DHT22;27869;51.442;7.540;2023-04-01T13:41:23;11.00;99.90
42201;DHT22;27869;51.442;7.540;2023-04-01T13:44:00;11.00;99.90
42201;DHT22;27869;51.442;7.540;2023-04-01T13:46:54;11.00;99.90
42201;DHT22;27869;51.442;7.540;2023-04-01T13:49:48;11.00;99.90
42201;DHT22;27869;51.442;7.540;2023-04-01T13:52:53;11.00;99.90
42201;DHT22;27869;51.442;7.540;2023-04-01T13:55:35;10.90;99.90
42201;DHT22;27869;51.442;7.540;2023-04-01T13:58:22;10.90;99.90
42201;DHT22;27869;51.442;7.540;2023-04-01T14:01:06;10.90;99.90
42201;DHT22;27869;51.442;7.540;2023-04-01T14:03:47;10.80;99.90
42201;DHT22;27869;51.442;7.540;2023-04-01T14:06:27;10.80;99.90
42201;DHT22;27869;51.442;7.540;2023-04-01T14:09:21;10.80;99.90
42201;DHT22;27869;51.442;7.540;2023-04-01T14:11:59;10.70;99.90
42201;DHT22;27869;51.442;7.540;2023-04-01T14:14:36;10.70;99.90
42201;DHT22;27869;51.442;7.540;2023-04-01T14:17:29;10.70;99.90
42201;DHT22;27869;51.442;7.540;2023-04-01T14:20:25;10.70;99.90
42201;DHT22;27869;51.442;7.540;2023-04-01T14:23:17;10.70;99.90
42201;DHT22;27869;51.442;7.540;2023-04-01T14:28:42;10.70;99.90
42201;DHT22;27869;51.442;7.540;2023-04-01T14:34:11;10.70;99.90
42201;DHT22;27869;51.442;7.540;2023-04-01T14:36:55;10.70;99.90
42201;DHT22;27869;51.442;7.540;2023-04-01T14:39:38;10.70;99.90
42201;DHT22;27869;51.442;7.540;2023-04-01T14:42:44;10.70;99.90
42201;DHT22;27869;51.442;7.540;2023-04-01T14:45:26;10.60;99.90
42201;DHT22;27869;51.442;7.540;2023-04-01T14:48:07;10.60;99.90
42201;DHT22;27869;51.442;7.540;2023-04-01T14:50:42;10.60;99.90
42201;DHT22;27869;51.442;7.540;2023-04-01T14:53:16;10.60;99.90
42201;DHT22;27869;51.442;7.540;2023-04-01T14:55:53;10.60;99.90
42201;DHT22;27869;51.442;7.540;2023-04-01T14:58:22;10.60;99.90
42201;DHT22;27869;51.442;7.540;2023-04-01T15:01:01;10.60;99.90
42201;DHT22;27869;51.442;7.540;2023-04-01T15:03:39;10.70;99.90
42201;DHT22;27869;51.442;7.540;2023-04-01T15:06:31;10.70;99.90
42201;DHT22;27869;51.442;7.540;2023-04-01T15:09:07;10.70;99.90
42201;DHT22;27869;51.442;7.540;2023-04-01T15:11:50;10.70;99.90
42201;DHT22;27869;51.442;7.540;2023-04-01T15:17:48;10.60;99.90
42201;DHT22;27869;51.442;7.540;2023-04-01T15:20:47;10.60;99.90
42201;DHT22;27869;51.442;7.540;2023-04-01T15:23:35;10.60;99.90
42201;DHT22;27869;51.442;7.540;2023-04-01T15:26:22;10.60;99.90
42201;DHT22;27869;51.442;7.540;2023-04-01T15:29:04;10.60;99.90
42201;DHT22;27869;51.442;7.540;2023-04-01T15:31:40;10.50;99.90
42201;DHT22;27869;51.442;7.540;2023-04-01T15:34:29;10.50;99.90
42201;DHT22;27869;51.442;7.540;2023-04-01T15:37:06;10.50;99.90
42201;DHT22;27869;51.442;7.540;2023-04-01T15:39:46;10.50;99.90
42201;DHT22;27869;51.442;7.540;2023-04-01T15:42:33;10.50;99.90
42201;DHT22;27869;51.442;7.540;2023-04-01T15:45:14;10.60;99.90
42201;DHT22;27869;51.442;7.540;2023-04-01T15:47:46;10.60;99.90
42201;DHT22;27869;51.442;7.540;2023-04-01T15:50:36;10.60;99.90
42201;DHT22;27869;51.442;7.540;2023-04-01T15:53:18;10.60;99.90
42201;DHT22;27869;51.442;7.540;2023-04-01T15:55:52;10.60;99.90
42201;DHT22;27869;51.442;7.540;2023-04-01T15:58:33;10.60;99.90
42201;DHT22;27869;51.442;7.540;2023-04-01T16:01:13;10.60;99.90
42201;DHT22;27869;51.442;7.540;2023-04-01T16:03:49;10.50;99.90
42201;DHT22;27869;51.442;7.540;2023-04-01T16:06:33;10.50;99.90
42201;DHT22;27869;51.442;7.540;2023-04-01T16:09:28;10.50;99.90
42201;DHT22;27869;51.442;7.540;2023-04-01T16:12:04;10.50;99.90
42201;DHT22;27869;51.442;7.540;2023-04-01T16:14:39;10.50;99.90
42201;DHT22;27869;51.442;7.540;2023-04-01T16:17:29;10.50;99.90
42201;DHT22;27869;51.442;7.540;2023-04-01T16:20:02;10.50;99.90
42201;DHT22;27869;51.442;7.540;2023-04-01T16:22:44;10.50;99.90
42201;DHT22;27869;51.442;7.540;2023-04-01T16:25:31;10.50;99.90
42201;DHT22;27869;51.442;7.540;2023-04-01T16:28:09;10.60;99.90
42201;DHT22;27869;51.442;7.540;2023-04-01T16:30:45;10.60;99.90
42201;DHT22;27869;51.442;7.540;2023-04-01T16:33:19;10.50;99.90
42201;DHT22;27869;51.442;7.540;2023-04-01T16:35:53;10.50;99.90
42201;DHT22;27869;51.442;7.540;2023-04-01T16:38:25;10.50;99.90
42201;DHT22;27869;51.442;7.540;2023-04-01T16:41:03;10.50;99.90
42201;DHT22;27869;51.442;7.540;2023-04-01T16:43:39;10.50;99.90
42201;DHT22;27869;51.442;7.540;2023-04-01T16:46:32;10.50;99.90
42201;DHT22;27869;51.442;7.540;2023-04-01T16:49:27;10.50;99.90
42201;DHT22;27869;51.442;7.540;2023-04-01T16:52:04;10.50;99.90
42201;DHT22;27869;51.442;7.540;2023-04-01T16:54:35;10.50;99.90
42201;DHT22;27869;51.442;7.540;2023-04-01T16:57:17;10.40;99.90
42201;DHT22;27869;51.442;7.540;2023-04-01T16:59:47;10.50;99.90
42201;DHT22;27869;51.442;7.540;2023-04-01T17:02:22;10.40;99.90
42201;DHT22;27869;51.442;7.540;2023-04-01T17:04:55;10.40;99.90
42201;DHT22;27869;51.442;7.540;2023-04-01T17:07:28;10.50;99.90
42201;DHT22;27869;51.442;7.540;2023-04-01T17:10:15;10.50;99.90
42201;DHT22;27869;51.442;7.540;2023-04-01T17:13:07;10.40;99.90
42201;DHT22;27869;51.442;7.540;2023-04-01T17:15:43;10.40;99.90
42201;DHT22;27869;51.442;7.540;2023-04-01T17:18:16;10.40;99.90
42201;DHT22;27869;51.442;7.540;2023-04-01T17:20:51;10.40;99.90
42201;DHT22;27869;51.442;7.540;2023-04-01T17:23:26;10.40;99.90
42201;DHT22;27869;51.442;7.540;2023-04-01T17:26:06;10.40;99.90
42201;DHT22;27869;51.442;7.540;2023-04-01T17:28:47;10.40;99.90
42201;DHT22;27869;51.442;7.540;2023-04-01T17:31:25;10.40;99.90
42201;DHT22;27869;51.442;7.540;2023-04-01T17:34:09;10.40;99.90
42201;DHT22;27869;51.442;7.540;2023-04-01T17:36:50;10.40;99.90
42201;DHT22;27869;51.442;7.540;2023-04-01T17:39:30;10.40;99.90
42201;DHT22;27869;51.442;7.540;2023-04-01T17:42:06;10.40;99.90
42201;DHT22;27869;51.442;7.540;2023-04-01T17:44:45;10.40;99.90
42201;DHT22;27869;51.442;7.540;2023-04-01T17:47:27;10.40;99.90
42201;DHT22;27869;51.442;7.540;2023-04-01T17:50:02;10.40;99.90